createdAt,value
2019-03-01T00:01:58.111Z,7.37
2019-03-01T00:04:39.512Z,7.37
2019-03-01T00:07:45.492Z,8.10
2019-03-01T00:10:21.150Z,9.05
2019-03-01T00:12:56.689Z,12.00
2019-03-01T00:15:29.380Z,12.00
2019-03-01T00:18:10.706Z,13.28
2019-03-01T00:20:49.495Z,9.73
2019-03-01T00:23:38.952Z,9.53
2019-03-01T00:26:11.618Z,9.00
2019-03-01T00:29:05.461Z,9.73
2019-03-01T00:34:31.746Z,11.03
2019-03-01T00:37:23.635Z,11.15
2019-03-01T00:40:02.002Z,11.43
2019-03-01T00:42:37.239Z,10.93
2019-03-01T00:45:06.963Z,10.58
2019-03-01T00:47:36.406Z,9.60
2019-03-01T00:50:08.653Z,9.50
2019-03-01T00:52:38.110Z,10.98
2019-03-01T00:55:08.529Z,11.73
2019-03-01T00:57:37.971Z,8.23
2019-03-01T01:00:16.346Z,7.97
2019-03-01T01:02:45.799Z,8.28
2019-03-01T01:05:15.241Z,8.13
2019-03-01T01:07:44.644Z,7.80
2019-03-01T01:10:14.125Z,8.10
2019-03-01T01:12:43.535Z,8.28
2019-03-01T01:15:12.993Z,8.53
2019-03-01T01:17:42.404Z,8.00
2019-03-01T01:20:11.844Z,8.43
2019-03-01T01:22:41.277Z,10.38
2019-03-01T01:25:10.707Z,9.65
2019-03-01T01:27:41.140Z,10.85
2019-03-01T01:30:14.105Z,10.68
2019-03-01T01:32:43.536Z,9.65
2019-03-01T01:35:13.007Z,10.35
2019-03-01T01:37:42.467Z,10.85
2019-03-01T01:40:11.935Z,10.53
2019-03-01T01:42:41.364Z,11.12
2019-03-01T01:45:11.767Z,10.28
2019-03-01T01:47:41.134Z,11.05
2019-03-01T01:50:10.636Z,10.50
2019-03-01T01:52:40.177Z,10.88
2019-03-01T01:55:10.510Z,10.90
2019-03-01T01:57:40.070Z,12.35
2019-03-01T02:00:12.134Z,12.80
2019-03-01T02:02:41.531Z,12.37
2019-03-01T02:05:10.981Z,13.25
2019-03-01T02:07:40.402Z,13.08
2019-03-01T02:10:10.311Z,13.28
2019-03-01T02:12:39.730Z,12.93
2019-03-01T02:15:13.619Z,13.25
2019-03-01T02:17:43.045Z,13.70
2019-03-01T02:20:12.949Z,13.58
2019-03-01T02:22:42.361Z,13.18
2019-03-01T02:25:12.549Z,14.47
2019-03-01T02:27:41.986Z,15.53
2019-03-01T02:30:14.579Z,14.10
2019-03-01T02:32:45.091Z,15.28
2019-03-01T02:35:16.442Z,16.00
2019-03-01T02:37:45.995Z,16.57
2019-03-01T02:40:16.359Z,17.42
2019-03-01T02:42:45.816Z,15.63
2019-03-01T02:45:19.687Z,14.60
2019-03-01T02:47:49.165Z,13.93
2019-03-01T02:50:20.497Z,17.23
2019-03-01T02:52:49.964Z,17.95
2019-03-01T02:55:20.774Z,17.40
2019-03-01T02:57:50.215Z,19.90
2019-03-01T03:00:23.015Z,21.12
2019-03-01T03:02:52.441Z,25.35
2019-03-01T03:05:21.932Z,26.95
2019-03-01T03:07:55.544Z,33.73
2019-03-01T03:10:24.967Z,36.40
2019-03-01T03:12:57.249Z,38.78
2019-03-01T03:15:28.348Z,42.70
2019-03-01T03:17:58.055Z,45.00
2019-03-01T03:20:27.459Z,51.58
2019-03-01T03:22:56.890Z,52.25
2019-03-01T03:25:26.327Z,53.00
2019-03-01T03:27:55.793Z,55.75
2019-03-01T03:30:25.520Z,58.00
2019-03-01T03:32:54.968Z,55.43
2019-03-01T03:35:24.371Z,60.43
2019-03-01T03:37:53.812Z,62.15
2019-03-01T03:40:23.214Z,60.00
2019-03-01T03:42:52.823Z,68.57
2019-03-01T03:45:22.501Z,68.28
2019-03-01T03:47:51.944Z,69.32
2019-03-01T03:50:21.367Z,70.75
2019-03-01T03:52:50.821Z,71.25
2019-03-01T03:55:20.316Z,70.70
2019-03-01T03:57:49.734Z,73.85
2019-03-01T04:00:24.182Z,69.70
2019-03-01T04:02:53.634Z,75.10
2019-03-01T04:05:23.342Z,74.72
2019-03-01T04:07:52.828Z,77.62
2019-03-01T04:10:22.243Z,74.45
2019-03-01T04:12:51.695Z,73.92
2019-03-01T04:15:21.107Z,79.90
2019-03-01T04:17:50.539Z,77.53
2019-03-01T04:20:20.024Z,75.70
2019-03-01T04:22:49.475Z,79.35
2019-03-01T04:25:18.894Z,81.82
2019-03-01T04:27:48.364Z,83.80
2019-03-01T04:30:18.761Z,85.62
2019-03-01T04:32:48.209Z,87.20
2019-03-01T04:35:18.085Z,88.87
2019-03-01T04:37:47.495Z,88.22
2019-03-01T04:40:16.911Z,95.10
2019-03-01T04:42:46.363Z,106.27
2019-03-01T04:45:17.148Z,107.35
2019-03-01T04:47:46.583Z,113.97
2019-03-01T04:50:16.190Z,117.03
2019-03-01T04:52:45.655Z,123.05
2019-03-01T04:55:17.516Z,128.97
2019-03-01T04:57:47.021Z,116.60
2019-03-01T05:00:18.602Z,125.67
2019-03-01T05:02:48.030Z,119.02
2019-03-01T05:05:17.494Z,120.08
2019-03-01T05:07:47.014Z,118.90
2019-03-01T05:10:16.594Z,117.47
2019-03-01T05:12:46.037Z,128.12
2019-03-01T05:15:21.591Z,118.35
2019-03-01T05:17:51.035Z,102.60
2019-03-01T05:20:20.472Z,93.72
2019-03-01T05:22:49.918Z,96.53
2019-03-01T05:25:19.359Z,92.40
2019-03-01T05:27:48.852Z,81.15
2019-03-01T05:30:18.970Z,84.45
2019-03-01T05:32:48.374Z,75.03
2019-03-01T05:35:17.828Z,67.60
2019-03-01T05:37:47.279Z,62.50
2019-03-01T05:40:16.906Z,59.35
2019-03-01T05:42:46.347Z,58.58
2019-03-01T05:45:27.456Z,64.07
2019-03-01T05:47:57.143Z,65.25
2019-03-01T05:50:26.638Z,63.55
2019-03-01T05:52:57.195Z,64.03
2019-03-01T05:55:26.617Z,56.23
2019-03-01T05:58:21.908Z,50.33
2019-03-01T06:00:52.853Z,47.08
2019-03-01T06:03:46.839Z,51.37
2019-03-01T06:06:42.294Z,53.85
2019-03-01T06:09:15.007Z,55.08
2019-03-01T06:12:02.256Z,62.80
2019-03-01T06:14:55.883Z,62.85
2019-03-01T06:17:31.669Z,58.83
2019-03-01T06:20:10.109Z,63.63
2019-03-01T06:22:54.624Z,62.62
2019-03-01T06:25:45.113Z,62.73
2019-03-01T06:28:23.572Z,62.93
2019-03-01T06:31:27.732Z,58.90
2019-03-01T06:34:03.019Z,50.35
2019-03-01T06:36:56.621Z,51.55
2019-03-01T06:39:39.666Z,48.42
2019-03-01T06:42:36.418Z,52.00
2019-03-01T06:45:09.102Z,49.15
2019-03-01T06:47:43.854Z,49.60
2019-03-01T06:50:26.744Z,48.48
2019-03-01T06:52:56.212Z,51.88
2019-03-01T06:55:31.874Z,51.08
2019-03-01T06:58:01.356Z,55.12
2019-03-01T07:00:32.426Z,50.63
2019-03-01T07:03:01.933Z,53.10
2019-03-01T07:05:31.615Z,55.05
2019-03-01T07:08:01.028Z,53.30
2019-03-01T07:10:30.474Z,50.15
2019-03-01T07:12:59.926Z,49.63
2019-03-01T07:15:29.385Z,44.23
2019-03-01T07:17:58.791Z,43.75
2019-03-01T07:20:28.225Z,46.20
2019-03-01T07:22:57.655Z,48.75
2019-03-01T07:25:27.062Z,48.40
2019-03-01T07:27:56.489Z,46.65
2019-03-01T07:30:26.090Z,49.85
2019-03-01T07:32:55.518Z,40.52
2019-03-01T07:35:24.983Z,41.42
2019-03-01T07:37:54.474Z,43.08
2019-03-01T07:40:23.899Z,44.03
2019-03-01T07:42:53.307Z,39.50
2019-03-01T07:45:22.759Z,38.92
2019-03-01T07:47:52.178Z,42.23
2019-03-01T07:50:21.614Z,40.65
2019-03-01T07:52:51.050Z,39.92
2019-03-01T07:55:20.511Z,39.85
2019-03-01T07:57:50.673Z,36.63
2019-03-01T08:00:20.166Z,37.53
2019-03-01T08:02:49.629Z,36.23
2019-03-01T08:05:19.087Z,37.30
2019-03-01T08:07:55.707Z,36.53
2019-03-01T08:10:22.543Z,35.48
2019-03-01T08:12:50.687Z,35.65
2019-03-01T08:15:20.119Z,39.78
2019-03-01T08:17:49.562Z,37.48
2019-03-01T08:20:19.536Z,36.70
2019-03-01T08:22:49.771Z,38.73
2019-03-01T08:25:23.740Z,40.25
2019-03-01T08:27:50.626Z,40.28
2019-03-01T08:30:20.434Z,40.28
2019-03-01T08:32:49.855Z,39.13
2019-03-01T08:35:19.583Z,40.08
2019-03-01T08:37:49.838Z,38.00
2019-03-01T08:40:20.831Z,43.42
2019-03-01T08:42:50.271Z,40.88
2019-03-01T08:45:21.473Z,36.83
2019-03-01T08:47:50.867Z,38.40
2019-03-01T08:50:20.301Z,38.85
2019-03-01T08:52:49.729Z,35.73
2019-03-01T08:55:21.463Z,36.70
2019-03-01T08:57:51.404Z,36.23
2019-03-01T09:00:26.699Z,31.77
2019-03-01T09:02:58.573Z,32.42
2019-03-01T09:05:28.013Z,26.33
2019-03-01T09:07:57.423Z,26.82
2019-03-01T09:10:29.278Z,29.57
2019-03-01T09:12:58.577Z,27.77
2019-03-01T09:15:28.127Z,26.75
2019-03-01T09:17:57.568Z,27.75
2019-03-01T09:20:26.991Z,23.77
2019-03-01T09:22:56.427Z,25.48
2019-03-01T09:25:25.840Z,24.32
2019-03-01T09:27:55.267Z,27.25
2019-03-01T09:30:26.270Z,22.93
2019-03-01T09:32:55.693Z,22.82
2019-03-01T09:35:43.962Z,23.02
2019-03-01T09:38:13.684Z,20.65
2019-03-01T09:40:43.089Z,21.07
2019-03-01T09:43:12.534Z,16.02
2019-03-01T09:45:42.015Z,16.82
2019-03-01T09:48:12.168Z,16.90
2019-03-01T09:50:42.666Z,15.65
2019-03-01T09:53:12.112Z,13.90
2019-03-01T09:55:41.550Z,13.83
2019-03-01T09:58:10.977Z,14.05
2019-03-01T10:00:56.586Z,12.40
2019-03-01T10:03:26.292Z,11.80
2019-03-01T10:05:55.694Z,12.80
2019-03-01T10:08:25.124Z,10.53
2019-03-01T10:10:54.546Z,12.82
2019-03-01T10:13:23.950Z,12.65
2019-03-01T10:15:53.396Z,13.45
2019-03-01T10:18:22.799Z,13.43
2019-03-01T10:20:52.235Z,14.38
2019-03-01T10:23:21.883Z,15.00
2019-03-01T10:25:51.359Z,16.30
2019-03-01T10:28:20.803Z,14.50
2019-03-01T10:30:50.244Z,14.73
2019-03-01T10:33:19.763Z,16.62
2019-03-01T10:35:49.156Z,13.25
2019-03-01T10:38:18.571Z,13.65
2019-03-01T10:40:48.072Z,13.80
2019-03-01T10:43:17.481Z,14.05
2019-03-01T10:45:46.905Z,13.30
2019-03-01T10:48:16.356Z,12.33
2019-03-01T10:50:45.873Z,13.18
2019-03-01T10:53:15.395Z,12.63
2019-03-01T10:55:44.843Z,13.28
2019-03-01T10:58:14.281Z,12.20
2019-03-01T11:00:43.719Z,13.80
2019-03-01T11:03:13.131Z,14.05
2019-03-01T11:05:42.705Z,14.87
2019-03-01T11:08:12.132Z,16.90
2019-03-01T11:10:42.732Z,18.57
2019-03-01T11:13:15.399Z,21.57
2019-03-01T11:15:44.803Z,20.62
2019-03-01T11:18:14.231Z,21.75
2019-03-01T11:20:43.662Z,24.05
2019-03-01T11:23:13.075Z,32.58
2019-03-01T11:25:42.530Z,28.60
2019-03-01T11:28:11.975Z,25.35
2019-03-01T11:30:41.404Z,23.90
2019-03-01T11:33:10.855Z,21.57
2019-03-01T11:35:40.334Z,19.55
2019-03-01T11:38:09.765Z,21.27
2019-03-01T11:40:39.883Z,22.05
2019-03-01T11:43:09.304Z,18.42
2019-03-01T11:45:38.754Z,19.23
2019-03-01T11:48:08.247Z,20.12
2019-03-01T11:50:37.699Z,19.60
2019-03-01T11:53:07.137Z,18.62
2019-03-01T11:55:36.566Z,15.88
2019-03-01T11:58:06.011Z,15.23
2019-03-01T12:00:35.442Z,13.72
2019-03-01T12:03:04.910Z,12.15
2019-03-01T12:05:34.335Z,11.22
2019-03-01T12:08:03.752Z,11.97
2019-03-01T12:10:33.274Z,11.43
2019-03-01T12:13:02.741Z,12.13
2019-03-01T12:15:32.128Z,11.60
2019-03-01T12:18:01.567Z,10.35
2019-03-01T12:20:33.956Z,10.25
2019-03-01T12:23:03.707Z,11.10
2019-03-01T12:25:33.152Z,9.28
2019-03-01T12:28:02.561Z,9.08
2019-03-01T12:30:31.983Z,9.23
2019-03-01T12:33:01.466Z,8.60
2019-03-01T12:35:30.901Z,8.55
2019-03-01T12:38:00.324Z,8.25
2019-03-01T12:40:30.920Z,7.75
2019-03-01T12:43:00.372Z,8.95
2019-03-01T12:45:29.848Z,8.83
2019-03-01T12:47:59.256Z,9.33
2019-03-01T12:50:28.686Z,6.78
2019-03-01T12:52:58.122Z,8.00
2019-03-01T12:55:28.999Z,8.10
2019-03-01T12:57:58.423Z,7.40
2019-03-01T13:00:30.469Z,7.62
2019-03-01T13:02:59.899Z,8.25
2019-03-01T13:05:30.327Z,7.22
2019-03-01T13:07:59.913Z,10.35
2019-03-01T13:10:40.387Z,7.60
2019-03-01T13:13:09.284Z,8.05
2019-03-01T13:15:38.713Z,7.65
2019-03-01T13:18:10.333Z,7.00
2019-03-01T13:20:39.207Z,7.17
2019-03-01T13:23:08.599Z,7.28
2019-03-01T13:25:38.643Z,7.33
2019-03-01T13:28:08.055Z,7.50
2019-03-01T13:30:37.495Z,6.75
2019-03-01T13:33:06.907Z,7.10
2019-03-01T13:35:36.336Z,6.33
2019-03-01T13:38:05.739Z,6.15
2019-03-01T13:40:35.186Z,6.22
2019-03-01T13:43:04.609Z,6.37
2019-03-01T13:45:34.046Z,7.45
2019-03-01T13:48:03.460Z,5.62
2019-03-01T13:50:33.123Z,6.53
2019-03-01T13:53:02.723Z,5.80
2019-03-01T13:55:32.340Z,6.22
2019-03-01T13:58:01.964Z,6.35
2019-03-01T14:00:31.598Z,6.80
2019-03-01T14:03:01.255Z,6.65
2019-03-01T14:05:30.984Z,6.92
2019-03-01T14:08:08.559Z,7.12
2019-03-01T14:10:31.809Z,7.08
2019-03-01T14:13:01.408Z,6.60
2019-03-01T14:15:31.004Z,7.55
2019-03-01T14:18:01.150Z,6.95
2019-03-01T14:20:31.823Z,7.53
2019-03-01T14:23:01.419Z,8.40
2019-03-01T14:25:31.022Z,7.37
2019-03-01T14:28:02.164Z,7.72
2019-03-01T14:30:33.460Z,6.22
2019-03-01T14:33:03.169Z,5.67
2019-03-01T14:35:32.830Z,5.80
2019-03-01T14:38:02.503Z,5.90
2019-03-01T14:40:32.213Z,5.42
2019-03-01T14:43:03.310Z,5.47
2019-03-01T14:45:34.443Z,6.22
2019-03-01T14:48:05.140Z,6.53
2019-03-01T14:50:35.418Z,6.05
2019-03-01T14:53:05.115Z,6.42
2019-03-01T14:55:55.618Z,6.87
2019-03-01T14:58:30.083Z,6.70
2019-03-01T15:01:02.773Z,6.70
2019-03-01T15:03:34.952Z,6.60
2019-03-01T15:06:05.679Z,7.65
2019-03-01T15:08:36.391Z,7.37
2019-03-01T15:11:11.478Z,7.83
2019-03-01T15:13:41.202Z,6.50
2019-03-01T15:16:10.891Z,7.15
2019-03-01T15:18:42.161Z,7.17
2019-03-01T15:21:13.034Z,6.95
2019-03-01T15:23:42.681Z,5.97
2019-03-01T15:26:12.833Z,5.90
2019-03-01T15:28:53.933Z,6.40
2019-03-01T15:31:19.336Z,5.67
2019-03-01T15:33:48.936Z,6.25
2019-03-01T15:36:19.120Z,5.83
2019-03-01T15:38:49.040Z,5.58
2019-03-01T15:41:18.674Z,5.30
2019-03-01T15:43:48.261Z,5.12
2019-03-01T15:46:20.107Z,4.78
2019-03-01T15:48:49.735Z,5.33
2019-03-01T15:51:20.971Z,5.33
2019-03-01T15:53:50.581Z,6.35
2019-03-01T15:56:22.042Z,6.60
2019-03-01T15:58:51.413Z,6.70
2019-03-01T16:01:21.001Z,7.72
2019-03-01T16:03:50.584Z,8.50
2019-03-01T16:06:22.256Z,9.53
2019-03-01T16:08:51.423Z,11.15
2019-03-01T16:11:21.015Z,10.05
2019-03-01T16:13:50.715Z,9.18
2019-03-01T16:16:20.360Z,9.03
2019-03-01T16:18:49.965Z,8.50
2019-03-01T16:21:19.566Z,8.90
2019-03-01T16:23:49.181Z,7.85
2019-03-01T16:26:18.791Z,8.18
2019-03-01T16:28:48.399Z,9.93
2019-03-01T16:31:18.028Z,8.80
2019-03-01T16:33:47.639Z,7.78
2019-03-01T16:36:18.892Z,7.97
2019-03-01T16:38:49.011Z,7.17
2019-03-01T16:41:18.991Z,7.45
2019-03-01T16:43:48.603Z,6.45
2019-03-01T16:46:18.221Z,7.20
2019-03-01T16:48:48.785Z,6.75
2019-03-01T16:51:19.618Z,6.22
2019-03-01T16:53:49.300Z,6.20
2019-03-01T16:56:18.906Z,5.80
2019-03-01T16:58:48.850Z,5.17
2019-03-01T17:01:18.451Z,5.10
2019-03-01T17:03:49.618Z,5.67
2019-03-01T17:06:19.277Z,5.70
2019-03-01T17:08:48.875Z,6.95
2019-03-01T17:11:18.482Z,6.00
2019-03-01T17:13:48.115Z,5.92
2019-03-01T17:16:20.425Z,6.35
2019-03-01T17:18:49.466Z,6.87
2019-03-01T17:21:19.079Z,6.20
2019-03-01T17:23:48.675Z,6.37
2019-03-01T17:26:18.291Z,7.12
2019-03-01T17:28:49.754Z,10.70
2019-03-01T17:31:19.305Z,6.28
2019-03-01T17:33:50.031Z,7.25
2019-03-01T17:36:19.985Z,6.85
2019-03-01T17:38:49.680Z,7.62
2019-03-01T17:41:19.292Z,7.65
2019-03-01T17:43:48.931Z,8.20
2019-03-01T17:46:18.570Z,7.30
2019-03-01T17:48:48.182Z,7.65
2019-03-01T17:51:18.284Z,7.03
2019-03-01T17:53:49.252Z,6.97
2019-03-01T17:56:21.877Z,6.72
2019-03-01T17:58:50.062Z,9.20
2019-03-01T18:01:19.664Z,8.08
2019-03-01T18:03:49.247Z,7.85
2019-03-01T18:06:18.855Z,8.78
2019-03-01T18:08:48.460Z,8.05
2019-03-01T18:11:18.345Z,10.85
2019-03-01T18:13:50.966Z,6.85
2019-03-01T18:16:22.071Z,7.20
2019-03-01T18:18:53.001Z,7.72
2019-03-01T18:21:22.696Z,5.25
2019-03-01T18:23:54.904Z,4.97
2019-03-01T18:26:24.551Z,6.45
2019-03-01T18:29:00.969Z,7.87
2019-03-01T18:31:34.497Z,4.10
2019-03-01T18:34:02.609Z,6.25
2019-03-01T18:36:32.460Z,4.15
2019-03-01T18:39:03.687Z,5.45
2019-03-01T18:41:33.542Z,4.30
2019-03-01T18:44:03.142Z,5.80
2019-03-01T18:46:32.857Z,4.00
2019-03-01T18:49:02.434Z,5.37
2019-03-01T18:51:32.222Z,6.47
2019-03-01T18:54:04.005Z,4.95
2019-03-01T18:56:33.096Z,5.50
2019-03-01T18:59:02.709Z,5.20
2019-03-01T19:01:32.300Z,8.70
2019-03-01T19:04:02.002Z,5.22
2019-03-01T19:06:31.760Z,5.62
2019-03-01T19:09:01.444Z,7.10
2019-03-01T19:11:31.127Z,6.53
2019-03-01T19:14:01.838Z,6.72
2019-03-01T19:16:31.945Z,6.10
2019-03-01T19:19:01.572Z,7.25
2019-03-01T19:21:31.192Z,10.88
2019-03-01T19:24:00.776Z,6.40
2019-03-01T19:26:30.460Z,8.63
2019-03-01T19:29:02.711Z,7.25
2019-03-01T19:31:31.287Z,6.83
2019-03-01T19:34:00.885Z,8.38
2019-03-01T19:36:30.537Z,8.35
2019-03-01T19:39:01.322Z,7.50
2019-03-01T19:41:31.147Z,7.60
2019-03-01T19:44:00.867Z,9.28
2019-03-01T19:46:30.463Z,9.53
2019-03-01T19:49:00.064Z,8.15
2019-03-01T19:51:29.667Z,7.87
2019-03-01T19:54:01.264Z,8.60
2019-03-01T19:56:34.355Z,10.88
2019-03-01T19:59:03.143Z,8.95
2019-03-01T20:01:32.790Z,8.95
2019-03-01T20:04:02.426Z,8.45
2019-03-01T20:06:32.087Z,11.28
2019-03-01T20:09:04.494Z,16.42
2019-03-01T20:11:33.078Z,15.28
2019-03-01T20:14:02.789Z,11.70
2019-03-01T20:16:32.358Z,14.03
2019-03-01T20:19:02.096Z,11.40
2019-03-01T20:21:31.786Z,10.82
2019-03-01T20:24:01.830Z,11.73
2019-03-01T20:26:32.636Z,11.50
2019-03-01T20:29:02.248Z,11.38
2019-03-01T20:31:31.827Z,13.93
2019-03-01T20:34:01.891Z,11.95
2019-03-01T20:36:34.192Z,12.03
2019-03-01T20:39:04.660Z,13.32
2019-03-01T20:41:35.929Z,13.30
2019-03-01T20:44:05.516Z,13.15
2019-03-01T20:46:35.280Z,12.93
2019-03-01T20:49:05.056Z,13.95
2019-03-01T20:51:34.663Z,13.30
2019-03-01T20:54:04.308Z,11.65
2019-03-01T20:56:33.910Z,14.03
2019-03-01T20:59:03.546Z,13.18
2019-03-01T21:01:33.689Z,13.95
2019-03-01T21:04:04.824Z,11.55
2019-03-01T21:06:37.363Z,12.05
2019-03-01T21:09:07.074Z,12.13
2019-03-01T21:11:36.883Z,12.28
2019-03-01T21:14:06.576Z,10.85
2019-03-01T21:16:36.188Z,12.53
2019-03-01T21:19:08.698Z,11.53
2019-03-01T21:21:37.085Z,16.75
2019-03-01T21:24:06.686Z,11.73
2019-03-01T21:26:36.360Z,11.22
2019-03-01T21:29:08.933Z,16.75
2019-03-01T21:31:37.174Z,13.40
2019-03-01T21:34:06.836Z,13.83
2019-03-01T21:36:36.430Z,12.33
2019-03-01T21:39:07.306Z,15.40
2019-03-01T21:41:36.942Z,13.05
2019-03-01T21:44:10.134Z,12.60
2019-03-01T21:46:37.770Z,12.03
2019-03-01T21:49:07.408Z,13.43
2019-03-01T21:51:36.996Z,12.13
2019-03-01T21:54:06.606Z,12.10
2019-03-01T21:56:39.590Z,11.75
2019-03-01T21:59:07.410Z,12.43
2019-03-01T22:01:37.665Z,12.63
2019-03-01T22:04:08.599Z,11.55
2019-03-01T22:06:39.289Z,12.58
2019-03-01T22:09:10.066Z,13.25
2019-03-01T22:11:39.675Z,13.10
2019-03-01T22:14:10.764Z,14.47
2019-03-01T22:16:40.650Z,14.90
2019-03-01T22:19:10.255Z,13.70
2019-03-01T22:21:39.938Z,15.32
2019-03-01T22:24:09.551Z,14.15
2019-03-01T22:26:39.636Z,14.78
2019-03-01T22:29:12.136Z,15.75
2019-03-01T22:31:41.060Z,15.93
2019-03-01T22:34:10.650Z,14.53
2019-03-01T22:36:40.278Z,15.65
2019-03-01T22:39:09.923Z,15.63
2019-03-01T22:41:40.453Z,16.02
2019-03-01T22:44:10.138Z,16.25
2019-03-01T22:46:39.728Z,17.20
2019-03-01T22:49:09.324Z,17.85
2019-03-01T22:51:38.934Z,16.75
2019-03-01T22:54:08.541Z,16.20
2019-03-01T22:56:38.147Z,17.95
2019-03-01T22:59:11.896Z,17.32
2019-03-01T23:01:40.874Z,16.20
2019-03-01T23:04:10.930Z,16.30
2019-03-01T23:06:40.620Z,16.23
2019-03-01T23:09:12.220Z,15.75
2019-03-01T23:11:41.868Z,17.12
2019-03-01T23:14:11.553Z,16.52
2019-03-01T23:16:41.343Z,16.42
2019-03-01T23:19:12.628Z,16.12
2019-03-01T23:21:42.355Z,16.80
2019-03-01T23:24:12.071Z,16.60
2019-03-01T23:26:41.811Z,16.70
2019-03-01T23:29:11.407Z,17.75
2019-03-01T23:31:41.232Z,18.15
2019-03-01T23:34:11.053Z,18.05
2019-03-01T23:36:40.874Z,17.65
2019-03-01T23:39:12.297Z,20.20
2019-03-01T23:41:46.324Z,20.45
2019-03-01T23:44:16.126Z,20.65
2019-03-01T23:46:49.426Z,21.50
2019-03-01T23:51:49.780Z,24.27
2019-03-01T23:54:19.432Z,25.20
2019-03-01T23:56:49.102Z,24.32
2019-03-01T23:59:23.789Z,26.60
